Time;durP1;ratioP1;P1;durP2;ratioP2;P2;SDS_P1;SDS_P2;PMS_P1;PMS_P2;Temp;Humidity;BMP_temperature;BMP_pressure;BME280_temperature;BME280_humidity;BME280_pressure;Samples;Min_cycle;Max_cycle;Signal;HPM_P1;HPM_P2
2022/04/21 00:02:23;;;;;;;;;;;8.30;99.90;;;;;;5064733;28;19924;-67
2022/04/21 00:04:49;;;;;;;;;;;8.30;99.90;;;;;;5064996;28;19920;-67
2022/04/21 00:07:16;;;;;;;;;;;8.20;99.90;;;;;;5077343;28;19927;-68
2022/04/21 00:09:42;;;;;;;;;;;8.20;99.90;;;;;;5084820;28;20235;-68
2022/04/21 00:12:10;;;;;;;;;;;8.20;99.90;;;;;;5084774;28;19927;-68
2022/04/21 00:14:38;;;;;;;;;;;8.20;99.90;;;;;;5075618;28;20268;-68
2022/04/21 00:17:04;;;;;;;;;;;8.10;99.90;;;;;;5064020;28;19928;-68
2022/04/21 00:19:31;;;;;;;;;;;8.20;99.90;;;;;;5064607;28;19921;-67
2022/04/21 00:24:41;;;;;;;;;;;8.10;99.90;;;;;;5064629;28;20000;-67
2022/04/21 00:27:08;;;;;;;;;;;8.10;99.90;;;;;;5064148;28;20204;-68
2022/04/21 00:29:36;;;;;;;;;;;8.10;99.90;;;;;;5063575;28;20115;-68
2022/04/21 00:32:04;;;;;;;;;;;8.10;99.90;;;;;;5064390;28;19945;-69
2022/04/21 00:34:32;;;;;;;;;;;8.10;99.90;;;;;;5064535;28;19920;-68
2022/04/21 00:36:59;;;;;;;;;;;8.00;99.90;;;;;;5073003;28;20227;-67
2022/04/21 00:39:25;;;;;;;;;;;8.10;99.90;;;;;;5083973;28;19920;-68
2022/04/21 00:41:55;;;;;;;;;;;8.10;99.90;;;;;;5084145;28;19987;-68
2022/04/21 00:44:22;;;;;;;;;;;8.00;99.90;;;;;;5084108;28;19921;-68
2022/04/21 00:46:49;;;;;;;;;;;8.00;99.90;;;;;;5083746;28;19920;-67
2022/04/21 00:49:18;;;;;;;;;;;8.00;99.90;;;;;;5070676;28;19921;-68
2022/04/21 00:51:45;;;;;;;;;;;7.90;99.90;;;;;;5064061;28;19921;-68
2022/04/21 00:54:11;;;;;;;;;;;8.00;99.90;;;;;;5063729;28;19921;-68
2022/04/21 00:56:39;;;;;;;;;;;7.90;99.90;;;;;;5063320;28;19922;-68
2022/04/21 00:59:06;;;;;;;;;;;7.80;99.90;;;;;;5063783;28;20261;-68
2022/04/21 01:04:25;;;;;;;;;;;7.80;99.90;;;;;;5024916;28;19924;-67
2022/04/21 01:06:52;;;;;;;;;;;7.80;99.90;;;;;;5070599;28;19921;-68
2022/04/21 01:09:18;;;;;;;;;;;7.80;99.90;;;;;;5068514;22;19921;-68
2022/04/21 01:11:45;;;;;;;;;;;7.70;99.90;;;;;;5059936;28;20138;-67
2022/04/21 01:14:12;;;;;;;;;;;7.70;99.90;;;;;;5057842;28;19928;-68
2022/04/21 01:16:39;;;;;;;;;;;7.70;99.90;;;;;;5063146;28;19921;-67
2022/04/21 01:19:06;;;;;;;;;;;7.70;99.90;;;;;;5063196;28;19928;-67
2022/04/21 01:21:33;;;;;;;;;;;7.60;99.90;;;;;;5063776;28;19927;-68
2022/04/21 01:24:01;;;;;;;;;;;7.60;99.90;;;;;;5063426;28;19992;-67
2022/04/21 01:26:29;;;;;;;;;;;7.60;99.90;;;;;;5063130;28;19928;-67
2022/04/21 01:28:55;;;;;;;;;;;7.60;99.90;;;;;;5063371;28;19921;-68
2022/04/21 01:31:23;;;;;;;;;;;7.60;99.90;;;;;;5063001;28;19966;-68
2022/04/21 01:33:50;;;;;;;;;;;7.50;99.90;;;;;;5063358;28;19921;-68
2022/04/21 01:36:16;;;;;;;;;;;7.50;99.90;;;;;;5062415;28;19959;-68
2022/04/21 01:41:29;;;;;;;;;;;7.50;99.90;;;;;;5063354;28;20283;-67
2022/04/21 01:43:55;;;;;;;;;;;7.50;99.90;;;;;;5062993;28;19921;-68
2022/04/21 01:46:22;;;;;;;;;;;7.50;99.90;;;;;;5062756;28;19927;-68
2022/04/21 01:48:48;;;;;;;;;;;7.50;99.90;;;;;;5062670;28;19921;-68
2022/04/21 01:51:15;;;;;;;;;;;7.50;99.90;;;;;;5063121;28;19921;-68
2022/04/21 01:53:41;;;;;;;;;;;7.50;99.90;;;;;;5062915;28;19927;-68
2022/04/21 01:56:09;;;;;;;;;;;7.50;99.90;;;;;;5062839;28;19924;-68
2022/04/21 01:58:36;;;;;;;;;;;7.50;99.90;;;;;;5062832;28;19920;-67
2022/04/21 02:01:03;;;;;;;;;;;7.50;99.90;;;;;;5062670;28;19928;-67
2022/04/21 02:03:31;;;;;;;;;;;7.50;99.90;;;;;;5062915;28;19928;-68
2022/04/21 02:05:57;;;;;;;;;;;7.40;99.90;;;;;;5062718;28;20084;-67
2022/04/21 02:08:24;;;;;;;;;;;7.50;99.90;;;;;;5062493;28;19928;-68
2022/04/21 02:10:51;;;;;;;;;;;7.40;99.90;;;;;;5062867;28;19921;-68
2022/04/21 02:13:18;;;;;;;;;;;7.40;99.90;;;;;;5062812;28;19921;-68
2022/04/21 02:15:45;;;;;;;;;;;7.40;99.90;;;;;;5062348;28;19921;-67
2022/04/21 02:18:12;;;;;;;;;;;7.40;99.90;;;;;;5062656;28;19921;-68
2022/04/21 02:20:38;;;;;;;;;;;7.40;99.90;;;;;;5062826;28;19921;-68
2022/04/21 02:23:05;;;;;;;;;;;7.40;99.90;;;;;;5062880;28;19920;-68
2022/04/21 02:25:31;;;;;;;;;;;7.40;99.90;;;;;;5062147;28;19921;-67
2022/04/21 02:27:58;;;;;;;;;;;7.40;99.90;;;;;;5062650;28;19921;-68
2022/04/21 02:30:26;;;;;;;;;;;7.40;99.90;;;;;;5062396;28;20155;-67
2022/04/21 02:32:52;;;;;;;;;;;7.40;99.90;;;;;;5062935;28;19921;-68
2022/04/21 02:35:19;;;;;;;;;;;7.40;99.90;;;;;;5062349;28;19927;-68
2022/04/21 02:37:46;;;;;;;;;;;7.40;99.90;;;;;;5062414;28;19928;-68
2022/04/21 02:40:14;;;;;;;;;;;7.40;99.90;;;;;;5062702;28;19927;-68
2022/04/21 02:42:40;;;;;;;;;;;7.30;99.90;;;;;;5062349;28;19927;-69
2022/04/21 02:45:08;;;;;;;;;;;7.30;99.90;;;;;;5062527;28;19927;-68
2022/04/21 02:47:37;;;;;;;;;;;7.30;99.90;;;;;;5062507;28;19927;-67
2022/04/21 02:50:04;;;;;;;;;;;7.30;99.90;;;;;;5062379;28;19928;-67
2022/04/21 02:52:30;;;;;;;;;;;7.20;99.90;;;;;;5063941;28;19921;-67
2022/04/21 02:57:41;;;;;;;;;;;7.20;99.90;;;;;;5066062;28;20177;-67
2022/04/21 03:00:08;;;;;;;;;;;7.20;99.90;;;;;;5066245;28;19967;-67
2022/04/21 03:02:34;;;;;;;;;;;7.20;99.90;;;;;;5066349;28;19927;-68
2022/04/21 03:05:02;;;;;;;;;;;7.20;99.90;;;;;;5065679;28;19921;-68
2022/04/21 03:07:29;;;;;;;;;;;7.10;99.90;;;;;;5065430;28;19943;-68
2022/04/21 03:09:55;;;;;;;;;;;7.10;99.90;;;;;;5065720;28;19921;-67
2022/04/21 03:12:22;;;;;;;;;;;7.10;99.90;;;;;;5065971;28;19927;-68
2022/04/21 03:14:50;;;;;;;;;;;7.10;99.90;;;;;;5065677;28;19921;-67
2022/04/21 03:17:16;;;;;;;;;;;7.00;99.90;;;;;;5065487;28;19920;-67
2022/04/21 03:19:43;;;;;;;;;;;7.00;99.90;;;;;;5065747;28;19920;-68
2022/04/21 03:24:58;;;;;;;;;;;7.00;99.90;;;;;;5065738;28;19928;-68
2022/04/21 03:27:25;;;;;;;;;;;6.90;99.90;;;;;;5065462;28;19945;-67
2022/04/21 03:29:52;;;;;;;;;;;6.80;99.90;;;;;;5065368;28;19921;-68
2022/04/21 03:32:18;;;;;;;;;;;6.80;99.90;;;;;;5065844;28;19921;-68
2022/04/21 03:34:45;;;;;;;;;;;6.70;99.90;;;;;;5065130;28;19924;-68
2022/04/21 03:37:13;;;;;;;;;;;6.60;99.90;;;;;;5064880;28;19931;-67
2022/04/21 03:39:41;;;;;;;;;;;6.50;99.90;;;;;;5065466;28;19921;-67
2022/04/21 03:42:08;;;;;;;;;;;6.40;99.90;;;;;;5045480;28;19925;-67
2022/04/21 03:44:40;;;;;;;;;;;6.30;99.90;;;;;;5045305;28;20209;-68
2022/04/21 03:47:07;;;;;;;;;;;6.30;99.90;;;;;;5057557;28;19920;-68
2022/04/21 03:49:34;;;;;;;;;;;6.30;99.90;;;;;;5064861;28;19927;-68
2022/04/21 03:52:00;;;;;;;;;;;6.20;99.90;;;;;;5064950;28;20119;-69
2022/04/21 03:54:28;;;;;;;;;;;6.10;99.90;;;;;;5065235;28;19925;-68
2022/04/21 03:56:55;;;;;;;;;;;6.10;99.90;;;;;;5064564;28;19927;-69
2022/04/21 03:59:22;;;;;;;;;;;6.10;99.90;;;;;;5064742;28;19927;-68
2022/04/21 04:01:49;;;;;;;;;;;6.10;99.90;;;;;;5064778;28;19928;-68
2022/04/21 04:04:16;;;;;;;;;;;6.10;99.90;;;;;;5062342;28;20281;-67
2022/04/21 04:12:13;;;;;;;;;;;6.00;99.90;;;;;;5064750;28;20183;-67
2022/04/21 04:14:39;;;;;;;;;;;5.90;99.90;;;;;;5064651;28;19928;-67
2022/04/21 04:17:06;;;;;;;;;;;5.90;99.90;;;;;;5064260;28;19943;-67
2022/04/21 04:19:33;;;;;;;;;;;5.80;99.90;;;;;;5064630;28;19920;-67
2022/04/21 04:22:00;;;;;;;;;;;5.80;99.90;;;;;;5064438;28;19927;-68
2022/04/21 04:24:26;;;;;;;;;;;5.80;99.90;;;;;;5064520;28;19971;-67
2022/04/21 04:26:54;;;;;;;;;;;5.70;99.90;;;;;;5063932;28;19921;-67
2022/04/21 04:29:23;;;;;;;;;;;5.70;99.90;;;;;;5064485;28;19928;-67
2022/04/21 04:31:50;;;;;;;;;;;5.60;99.90;;;;;;5064601;28;19921;-68
2022/04/21 04:34:17;;;;;;;;;;;5.60;99.90;;;;;;5064285;28;20093;-67
2022/04/21 04:36:44;;;;;;;;;;;5.60;99.90;;;;;;5064143;28;19936;-68
2022/04/21 04:39:11;;;;;;;;;;;5.60;99.90;;;;;;5063999;28;19920;-67
2022/04/21 04:44:23;;;;;;;;;;;5.50;99.90;;;;;;5064335;28;19963;-67
2022/04/21 04:46:49;;;;;;;;;;;5.50;99.90;;;;;;5063664;28;19927;-67
2022/04/21 04:49:16;;;;;;;;;;;5.60;99.90;;;;;;5064108;28;19950;-66
2022/04/21 04:51:43;;;;;;;;;;;5.60;99.90;;;;;;5064180;28;20033;-66
2022/04/21 04:54:10;;;;;;;;;;;5.70;99.90;;;;;;5064129;28;19937;-66
2022/04/21 04:56:38;;;;;;;;;;;5.70;99.90;;;;;;5063523;28;19927;-67
2022/04/21 04:59:04;;;;;;;;;;;5.80;99.90;;;;;;5063869;28;19921;-67
2022/04/21 05:01:33;;;;;;;;;;;5.80;99.90;;;;;;5063746;28;19920;-66
2022/04/21 05:04:03;;;;;;;;;;;5.80;99.90;;;;;;5063619;28;20230;-67
2022/04/21 05:06:33;;;;;;;;;;;5.80;99.90;;;;;;5063573;28;19921;-67
2022/04/21 05:09:00;;;;;;;;;;;5.80;99.90;;;;;;5063443;28;19924;-66
2022/04/21 05:11:27;;;;;;;;;;;5.80;99.90;;;;;;5063507;28;19927;-67
2022/04/21 05:13:54;;;;;;;;;;;5.80;99.90;;;;;;5063560;28;19920;-67
2022/04/21 05:16:21;;;;;;;;;;;5.80;99.90;;;;;;5063042;28;20264;-68
2022/04/21 05:18:49;;;;;;;;;;;5.80;99.90;;;;;;5063458;28;19921;-67
2022/04/21 05:21:16;;;;;;;;;;;5.90;99.90;;;;;;5063263;28;20234;-66
2022/04/21 05:23:45;;;;;;;;;;;5.90;99.90;;;;;;5063484;28;19921;-66
2022/04/21 05:26:12;;;;;;;;;;;5.80;99.90;;;;;;5063305;28;19927;-67
2022/04/21 05:28:38;;;;;;;;;;;5.90;99.90;;;;;;5043821;28;20078;-67
2022/04/21 05:31:04;;;;;;;;;;;5.90;99.90;;;;;;5042130;28;20212;-67
2022/04/21 05:33:33;;;;;;;;;;;5.90;99.90;;;;;;5042103;28;19917;-67
2022/04/21 05:36:01;;;;;;;;;;;5.80;99.90;;;;;;5042993;28;19933;-68
2022/04/21 05:38:28;;;;;;;;;;;5.90;99.90;;;;;;5043179;28;20146;-66
2022/04/21 05:40:55;;;;;;;;;;;5.90;99.90;;;;;;5043441;28;20112;-67
2022/04/21 05:43:23;;;;;;;;;;;5.90;99.90;;;;;;5043365;28;19955;-66
2022/04/21 05:45:50;;;;;;;;;;;6.00;99.90;;;;;;5042512;28;19976;-68
2022/04/21 05:48:17;;;;;;;;;;;6.00;99.90;;;;;;5047139;28;19995;-68
2022/04/21 05:50:45;;;;;;;;;;;6.00;99.90;;;;;;5063364;28;19921;-66
2022/04/21 05:53:19;;;;;;;;;;;6.10;99.90;;;;;;5063287;28;19967;-70
2022/04/21 05:55:46;;;;;;;;;;;6.10;99.90;;;;;;5063098;28;19921;-68
2022/04/21 05:58:13;;;;;;;;;;;6.10;99.90;;;;;;5063024;28;20205;-67
2022/04/21 06:00:39;;;;;;;;;;;6.20;99.90;;;;;;5062988;28;19927;-68
2022/04/21 06:03:06;;;;;;;;;;;6.30;99.90;;;;;;5063056;28;19944;-68
2022/04/21 06:05:33;;;;;;;;;;;6.40;99.90;;;;;;5062694;28;19927;-67
2022/04/21 06:08:00;;;;;;;;;;;6.50;99.90;;;;;;5062895;28;20208;-67
2022/04/21 06:10:27;;;;;;;;;;;6.70;99.90;;;;;;5062959;28;19921;-68
2022/04/21 06:12:55;;;;;;;;;;;6.70;99.90;;;;;;5062978;28;19921;-67
2022/04/21 06:15:21;;;;;;;;;;;6.80;99.90;;;;;;5062564;28;19959;-68
2022/04/21 06:17:48;;;;;;;;;;;6.80;99.90;;;;;;5063039;28;19921;-68
2022/04/21 06:20:14;;;;;;;;;;;6.90;99.90;;;;;;5063195;28;19927;-68
2022/04/21 06:22:41;;;;;;;;;;;7.00;99.90;;;;;;5062941;28;19921;-68
2022/04/21 06:25:08;;;;;;;;;;;7.00;99.90;;;;;;5063049;28;19929;-67
2022/04/21 06:27:36;;;;;;;;;;;7.10;99.90;;;;;;5064174;28;19927;-69
2022/04/21 06:30:03;;;;;;;;;;;7.20;99.90;;;;;;5066637;28;19929;-68
2022/04/21 06:32:29;;;;;;;;;;;7.40;99.90;;;;;;5066955;28;19927;-67
2022/04/21 06:34:57;;;;;;;;;;;7.50;99.90;;;;;;5065316;28;19933;-64
2022/04/21 06:37:23;;;;;;;;;;;7.60;99.90;;;;;;5066139;28;19943;-67
2022/04/21 06:39:51;;;;;;;;;;;7.70;99.90;;;;;;5066195;28;20231;-67
2022/04/21 06:42:17;;;;;;;;;;;7.90;99.90;;;;;;5066106;28;19986;-67
2022/04/21 06:50:11;;;;;;;;;;;8.20;99.90;;;;;;5033284;28;20163;-67
2022/04/21 06:52:37;;;;;;;;;;;8.30;99.90;;;;;;5046561;28;19921;-68
2022/04/21 06:55:04;;;;;;;;;;;8.40;99.90;;;;;;5064795;28;19924;-67
2022/04/21 06:57:31;;;;;;;;;;;8.50;99.90;;;;;;5065668;28;19921;-67
2022/04/21 06:59:59;;;;;;;;;;;8.60;99.90;;;;;;5066026;28;19928;-67
2022/04/21 07:02:31;;;;;;;;;;;8.70;99.90;;;;;;5065997;28;19921;-67
2022/04/21 07:05:03;;;;;;;;;;;8.80;99.90;;;;;;5065191;28;19970;-68
2022/04/21 07:07:30;;;;;;;;;;;8.90;99.90;;;;;;5065476;28;19921;-67
2022/04/21 07:09:57;;;;;;;;;;;8.90;99.90;;;;;;5071541;23;20131;-91
2022/04/21 07:12:26;;;;;;;;;;;9.00;99.90;;;;;;5067287;28;19920;-91
2022/04/21 07:14:52;;;;;;;;;;;9.00;99.90;;;;;;5064138;28;19927;-91
2022/04/21 07:17:21;;;;;;;;;;;9.00;99.90;;;;;;5062354;28;19923;-91
2022/04/21 07:19:48;;;;;;;;;;;9.10;99.90;;;;;;5061634;28;19920;-91
2022/04/21 07:22:15;;;;;;;;;;;9.10;99.90;;;;;;5066330;28;20254;-91
2022/04/21 07:24:42;;;;;;;;;;;9.10;99.90;;;;;;5066694;28;19920;-92
2022/04/21 07:27:08;;;;;;;;;;;9.20;99.90;;;;;;5066332;28;19952;-91
2022/04/21 07:29:36;;;;;;;;;;;9.20;99.90;;;;;;5065353;28;21513;-91
2022/04/21 07:32:03;;;;;;;;;;;9.20;99.90;;;;;;5066842;28;19921;-90
2022/04/21 07:34:34;;;;;;;;;;;9.20;99.90;;;;;;5067098;28;19980;-92
2022/04/21 07:37:01;;;;;;;;;;;9.20;99.90;;;;;;5066539;28;20123;-92
2022/04/21 07:39:28;;;;;;;;;;;9.20;99.90;;;;;;5066792;28;19908;-92
2022/04/21 07:41:56;;;;;;;;;;;9.20;99.90;;;;;;5066630;28;19963;-92
2022/04/21 07:44:24;;;;;;;;;;;9.20;99.90;;;;;;5066658;28;19959;-91
2022/04/21 07:46:50;;;;;;;;;;;9.20;99.90;;;;;;5064481;28;19921;-92
2022/04/21 07:54:44;;;;;;;;;;;9.50;99.90;;;;;;5059032;28;19928;-91
2022/04/21 07:57:10;;;;;;;;;;;9.50;99.90;;;;;;5061555;28;19959;-91
2022/04/21 07:59:37;;;;;;;;;;;9.60;99.90;;;;;;5064208;28;20184;-91
2022/04/21 08:02:04;;;;;;;;;;;9.70;99.90;;;;;;5065068;28;19991;-91
2022/04/21 08:04:31;;;;;;;;;;;9.90;99.90;;;;;;5048525;28;19996;-91
2022/04/21 08:06:57;;;;;;;;;;;10.00;99.90;;;;;;5044872;28;19921;-91
2022/04/21 08:09:25;;;;;;;;;;;10.00;99.90;;;;;;5044208;28;19920;-91
2022/04/21 08:11:52;;;;;;;;;;;10.10;99.90;;;;;;5062565;28;19920;-91
2022/04/21 08:14:19;;;;;;;;;;;10.10;99.90;;;;;;5064819;28;19921;-91
2022/04/21 08:16:46;;;;;;;;;;;10.20;99.90;;;;;;5064898;28;19932;-91
2022/04/21 08:19:12;;;;;;;;;;;10.30;99.90;;;;;;5064897;28;19988;-92
2022/04/21 08:21:39;;;;;;;;;;;10.50;99.90;;;;;;5064976;28;19980;-91
2022/04/21 08:32:40;;;;;;;;;;;10.70;99.90;;;;;;5070414;28;19959;-91
2022/04/21 08:35:09;;;;;;;;;;;10.80;99.90;;;;;;5066576;28;19929;-92
2022/04/21 08:37:36;;;;;;;;;;;10.90;99.90;;;;;;5064392;28;20247;-91
2022/04/21 08:40:03;;;;;;;;;;;11.00;99.90;;;;;;5066299;28;19948;-92
2022/04/21 08:42:33;;;;;;;;;;;11.10;99.90;;;;;;5065858;28;20043;-91
2022/04/21 08:44:59;;;;;;;;;;;11.20;99.90;;;;;;5065384;28;19980;-91
2022/04/21 08:47:28;;;;;;;;;;;11.20;99.90;;;;;;5064469;28;19921;-91
2022/04/21 08:49:57;;;;;;;;;;;11.30;99.90;;;;;;5063977;28;19919;-91
2022/04/21 08:52:24;;;;;;;;;;;11.30;99.90;;;;;;5064257;28;19921;-91
2022/04/21 08:54:51;;;;;;;;;;;11.30;99.90;;;;;;5064077;28;19992;-92
2022/04/21 08:57:18;;;;;;;;;;;11.20;99.90;;;;;;5064171;28;19921;-91
2022/04/21 08:59:46;;;;;;;;;;;11.20;99.90;;;;;;5064058;28;19920;-92
2022/04/21 09:02:12;;;;;;;;;;;11.20;99.90;;;;;;5044358;28;19921;-91
2022/04/21 09:04:41;;;;;;;;;;;11.10;99.90;;;;;;5044242;28;19921;-91
2022/04/21 09:07:14;;;;;;;;;;;11.00;99.90;;;;;;5043674;28;20070;-91
2022/04/21 09:09:40;;;;;;;;;;;10.90;99.90;;;;;;5044302;28;19943;-91
2022/04/21 09:12:08;;;;;;;;;;;10.90;99.90;;;;;;5064116;28;20003;-92
2022/04/21 09:14:35;;;;;;;;;;;10.90;99.90;;;;;;5065823;28;19992;-91
2022/04/21 09:17:05;;;;;;;;;;;11.00;99.90;;;;;;5064670;28;20292;-91
2022/04/21 09:19:32;;;;;;;;;;;11.10;99.90;;;;;;5064451;28;19942;-92
2022/04/21 09:22:00;;;;;;;;;;;11.20;99.90;;;;;;5063114;28;19927;-91
2022/04/21 09:24:27;;;;;;;;;;;11.20;99.90;;;;;;5063583;28;19921;-92
2022/04/21 09:26:56;;;;;;;;;;;11.40;99.90;;;;;;5063554;28;20151;-91
2022/04/21 09:29:24;;;;;;;;;;;11.60;99.90;;;;;;5063780;28;20000;-92
2022/04/21 09:31:54;;;;;;;;;;;11.80;99.90;;;;;;5063392;28;19927;-91
2022/04/21 09:34:22;;;;;;;;;;;11.80;99.90;;;;;;5063538;28;19920;-91
2022/04/21 09:36:49;;;;;;;;;;;11.80;99.90;;;;;;5063652;28;19983;-92
2022/04/21 09:39:15;;;;;;;;;;;11.80;99.90;;;;;;5063238;28;19988;-91
2022/04/21 09:41:43;;;;;;;;;;;11.90;99.90;;;;;;5063493;28;19935;-92
2022/04/21 09:46:52;;;;;;;;;;;12.10;99.90;;;;;;5061845;28;19933;-91
2022/04/21 09:52:12;;;;;;;;;;;12.10;99.90;;;;;;5154698;27;19916;-70
2022/04/21 09:54:39;;;;;;;;;;;12.20;99.90;;;;;;5120996;28;20119;-71
2022/04/21 09:57:06;;;;;;;;;;;12.30;99.90;;;;;;5121016;28;20286;-72
2022/04/21 09:59:35;;;;;;;;;;;12.50;99.90;;;;;;5121248;28;19927;-72
2022/04/21 10:02:02;;;;;;;;;;;12.70;99.90;;;;;;5121030;28;19920;-72
2022/04/21 10:04:30;;;;;;;;;;;12.90;99.90;;;;;;5119970;28;19920;-71
2022/04/21 10:06:57;;;;;;;;;;;12.90;99.90;;;;;;5120640;28;19987;-71
2022/04/21 10:09:26;;;;;;;;;;;13.00;99.90;;;;;;5120963;28;19927;-72
2022/04/21 10:11:53;;;;;;;;;;;13.00;99.90;;;;;;5121231;28;19920;-72
2022/04/21 10:14:20;;;;;;;;;;;13.10;99.90;;;;;;5120712;28;20212;-72
2022/04/21 10:16:48;;;;;;;;;;;13.10;99.90;;;;;;5120670;28;20099;-72
2022/04/21 10:19:16;;;;;;;;;;;13.20;99.90;;;;;;5120749;28;19927;-72
2022/04/21 10:21:48;;;;;;;;;;;13.30;99.90;;;;;;5120891;28;20331;-71
2022/04/21 10:24:21;;;;;;;;;;;13.40;99.90;;;;;;5120678;28;19958;-71
2022/04/21 10:26:49;;;;;;;;;;;13.50;99.90;;;;;;5120444;28;19927;-73
2022/04/21 10:29:17;;;;;;;;;;;13.50;99.90;;;;;;5119419;28;19926;-69
2022/04/21 10:31:49;;;;;;;;;;;13.50;99.90;;;;;;5115727;28;19970;-69
2022/04/21 10:34:27;;;;;;;;;;;13.50;99.90;;;;;;5108947;28;20137;-69
2022/04/21 10:37:05;;;;;;;;;;;13.40;99.90;;;;;;5108747;28;19920;-69
2022/04/21 10:39:32;;;;;;;;;;;13.40;99.90;;;;;;5111680;28;19920;-69
2022/04/21 10:42:13;;;;;;;;;;;13.40;99.90;;;;;;5116788;28;19921;-70
2022/04/21 10:44:44;;;;;;;;;;;13.60;99.90;;;;;;5114825;28;19926;-69
2022/04/21 10:47:29;;;;;;;;;;;13.70;99.90;;;;;;5120329;28;19920;-70
2022/04/21 10:49:56;;;;;;;;;;;13.80;99.90;;;;;;5119967;28;19926;-69
2022/04/21 10:58:25;;;;;;;;;;;14.20;99.90;;;;;;5120163;28;19974;-70
2022/04/21 11:03:47;;;;;;;;;;;14.80;99.90;;;;;;5174828;27;19908;-70
2022/04/21 11:06:15;;;;;;;;;;;15.20;99.90;;;;;;5141549;27;19927;-70
2022/04/21 11:08:42;;;;;;;;;;;15.60;99.90;;;;;;5141767;27;19926;-70
2022/04/21 11:11:08;;;;;;;;;;;15.60;99.90;;;;;;5142053;27;19919;-68
2022/04/21 11:13:42;;;;;;;;;;;15.60;99.90;;;;;;5141579;27;19926;-71
2022/04/21 11:16:08;;;;;;;;;;;15.70;99.90;;;;;;5141309;27;20274;-70
2022/04/21 11:18:35;;;;;;;;;;;15.80;99.90;;;;;;5141403;27;19926;-71
2022/04/21 11:21:22;;;;;;;;;;;16.10;99.90;;;;;;5141431;27;20215;-71
2022/04/21 11:24:07;;;;;;;;;;;16.20;99.90;;;;;;5141329;27;19923;-71
2022/04/21 11:26:33;;;;;;;;;;;16.30;99.90;;;;;;5130655;27;19925;-71
2022/04/21 11:29:03;;;;;;;;;;;16.40;99.90;;;;;;5140495;27;19919;-71
2022/04/21 11:31:30;;;;;;;;;;;16.30;99.90;;;;;;5141259;27;19920;-71
2022/04/21 11:34:01;;;;;;;;;;;16.20;99.90;;;;;;5140881;27;19926;-70
2022/04/21 11:36:36;;;;;;;;;;;15.70;99.90;;;;;;5141044;27;19965;-72
2022/04/21 11:39:06;;;;;;;;;;;15.40;99.90;;;;;;5123106;27;19920;-73
2022/04/21 11:41:33;;;;;;;;;;;15.10;99.90;;;;;;5120739;28;20100;-72
2022/04/21 11:43:59;;;;;;;;;;;14.80;99.90;;;;;;5120818;28;19994;-72
2022/04/21 11:46:27;;;;;;;;;;;14.60;99.90;;;;;;5119958;28;19942;-73
2022/04/21 11:48:58;;;;;;;;;;;14.30;99.90;;;;;;5120607;28;19920;-72
2022/04/21 11:51:25;;;;;;;;;;;14.20;99.90;;;;;;5121033;28;19920;-72
2022/04/21 11:53:53;;;;;;;;;;;14.20;99.90;;;;;;5121089;28;19926;-72
2022/04/21 11:56:21;;;;;;;;;;;14.20;99.90;;;;;;5122340;28;20093;-72
2022/04/21 11:58:48;;;;;;;;;;;14.20;99.90;;;;;;5131880;28;19968;-72
2022/04/21 12:06:45;;;;;;;;;;;14.50;99.90;;;;;;5140510;28;19937;-69
2022/04/21 12:09:15;;;;;;;;;;;14.60;99.90;;;;;;5122192;27;19920;-71
2022/04/21 12:11:42;;;;;;;;;;;14.70;99.90;;;;;;5120280;28;19920;-71
2022/04/21 12:14:09;;;;;;;;;;;14.60;99.90;;;;;;5112219;28;19924;-70
2022/04/21 12:16:37;;;;;;;;;;;14.60;99.90;;;;;;5105957;28;19927;-70
2022/04/21 12:19:11;;;;;;;;;;;14.70;99.90;;;;;;5106140;28;19920;-70
2022/04/21 12:21:38;;;;;;;;;;;14.60;99.90;;;;;;5106444;28;19924;-70
2022/04/21 12:24:10;;;;;;;;;;;14.60;99.90;;;;;;5106589;28;19920;-70
2022/04/21 12:26:38;;;;;;;;;;;14.60;99.90;;;;;;5105669;28;20116;-69
2022/04/21 12:29:06;;;;;;;;;;;14.70;99.90;;;;;;5106071;28;19930;-71
2022/04/21 12:31:42;;;;;;;;;;;14.70;99.90;;;;;;5110397;28;19927;-70
2022/04/21 12:34:10;;;;;;;;;;;14.80;99.90;;;;;;5116699;28;19920;-71
2022/04/21 12:36:36;;;;;;;;;;;14.90;99.90;;;;;;5125652;27;20107;-71
2022/04/21 12:39:03;;;;;;;;;;;14.80;99.90;;;;;;5128232;27;19920;-68
2022/04/21 12:41:30;;;;;;;;;;;14.90;99.90;;;;;;5146497;27;20283;-68
2022/04/21 12:43:58;;;;;;;;;;;14.90;99.90;;;;;;5130439;27;19919;-66
2022/04/21 12:46:28;;;;;;;;;;;15.00;99.90;;;;;;5112178;27;19926;-69
2022/04/21 12:48:54;;;;;;;;;;;15.00;99.90;;;;;;5112965;28;19919;-70
2022/04/21 12:51:22;;;;;;;;;;;15.00;99.90;;;;;;5125308;28;20199;-68
2022/04/21 12:53:56;;;;;;;;;;;14.90;99.90;;;;;;5114130;28;19920;-70
2022/04/21 12:56:32;;;;;;;;;;;15.00;99.90;;;;;;5104683;28;20144;-70
2022/04/21 12:59:00;;;;;;;;;;;15.00;99.90;;;;;;5104397;28;19947;-70
2022/04/21 13:01:27;;;;;;;;;;;14.90;99.90;;;;;;5104826;28;19920;-70
2022/04/21 13:03:53;;;;;;;;;;;14.90;99.90;;;;;;5115759;28;19965;-69
2022/04/21 13:06:27;;;;;;;;;;;14.80;99.90;;;;;;5125273;27;19920;-70
2022/04/21 13:08:53;;;;;;;;;;;14.60;99.90;;;;;;5143119;22;20088;-65
2022/04/21 13:11:20;;;;;;;;;;;14.50;99.90;;;;;;5105077;28;19920;-65
2022/04/21 13:13:46;;;;;;;;;;;14.40;99.90;;;;;;5105123;28;19927;-64
2022/04/21 13:16:14;;;;;;;;;;;14.40;99.90;;;;;;5104676;28;19920;-65
2022/04/21 13:18:41;;;;;;;;;;;14.40;99.90;;;;;;5104100;28;19942;-64
2022/04/21 13:23:52;;;;;;;;;;;14.60;99.90;;;;;;5104773;28;19968;-64
2022/04/21 13:26:20;;;;;;;;;;;14.50;99.90;;;;;;5103484;28;20100;-65
2022/04/21 13:28:46;;;;;;;;;;;14.50;99.90;;;;;;5104362;28;19927;-65
2022/04/21 13:33:55;;;;;;;;;;;14.30;99.90;;;;;;5081710;28;19923;-65
2022/04/21 13:36:21;;;;;;;;;;;14.20;99.90;;;;;;5104069;28;19920;-65
2022/04/21 13:38:48;;;;;;;;;;;14.20;99.90;;;;;;5104647;28;19927;-65
2022/04/21 13:41:14;;;;;;;;;;;14.20;99.90;;;;;;5105030;28;19920;-64
2022/04/21 13:43:42;;;;;;;;;;;14.00;99.90;;;;;;5103694;28;19920;-64
2022/04/21 13:46:09;;;;;;;;;;;13.90;99.90;;;;;;5104187;28;19962;-64
2022/04/21 13:48:37;;;;;;;;;;;13.90;99.90;;;;;;5103647;28;19927;-64
2022/04/21 13:51:04;;;;;;;;;;;13.80;99.90;;;;;;5104371;28;19920;-64
2022/04/21 13:53:31;;;;;;;;;;;13.80;99.90;;;;;;5092901;28;19920;-64
2022/04/21 13:55:57;;;;;;;;;;;13.80;99.90;;;;;;5103200;28;19941;-64
2022/04/21 13:58:24;;;;;;;;;;;13.80;99.90;;;;;;5104178;28;19920;-65
2022/04/21 14:00:50;;;;;;;;;;;13.80;99.90;;;;;;5104040;28;19926;-64
2022/04/21 14:03:17;;;;;;;;;;;13.90;99.90;;;;;;5103501;28;19927;-64
2022/04/21 14:05:45;;;;;;;;;;;14.00;99.90;;;;;;5103944;28;19982;-64
2022/04/21 14:08:12;;;;;;;;;;;14.00;99.90;;;;;;5104485;28;20096;-65
2022/04/21 14:10:39;;;;;;;;;;;14.00;99.90;;;;;;5103959;28;19920;-64
2022/04/21 14:13:06;;;;;;;;;;;14.00;99.90;;;;;;5103617;28;20015;-64
2022/04/21 14:15:33;;;;;;;;;;;14.00;99.90;;;;;;5102663;28;19926;-64
2022/04/21 14:17:59;;;;;;;;;;;14.10;99.90;;;;;;5103832;28;19962;-64
2022/04/21 14:20:26;;;;;;;;;;;14.00;99.90;;;;;;5104039;28;19920;-64
2022/04/21 14:22:56;;;;;;;;;;;14.00;99.90;;;;;;5103515;28;19927;-64
2022/04/21 14:25:22;;;;;;;;;;;14.00;99.90;;;;;;5103559;28;20324;-65
2022/04/21 14:27:49;;;;;;;;;;;14.00;99.90;;;;;;5104197;28;19991;-64
2022/04/21 14:30:16;;;;;;;;;;;13.90;99.90;;;;;;5103576;28;19927;-65
2022/04/21 14:32:43;;;;;;;;;;;13.90;99.90;;;;;;5104058;28;19927;-64
2022/04/21 14:35:09;;;;;;;;;;;13.90;99.90;;;;;;5103654;28;19920;-64
2022/04/21 14:45:49;;;;;;;;;;;13.80;99.90;;;;;;5103575;28;19923;-67
2022/04/21 14:48:16;;;;;;;;;;;13.80;99.90;;;;;;5103227;28;19920;-67
2022/04/21 14:50:43;;;;;;;;;;;13.90;99.90;;;;;;5103366;28;19920;-67
2022/04/21 14:53:10;;;;;;;;;;;13.80;99.90;;;;;;5095163;28;19956;-67
2022/04/21 14:55:40;;;;;;;;;;;13.90;99.90;;;;;;5082996;28;19920;-67
2022/04/21 14:58:06;;;;;;;;;;;13.80;99.90;;;;;;5083478;28;19927;-68
2022/04/21 15:00:33;;;;;;;;;;;13.80;99.90;;;;;;5083339;28;19927;-67
2022/04/21 15:03:01;;;;;;;;;;;13.70;99.90;;;;;;5082998;28;19921;-68
2022/04/21 15:05:27;;;;;;;;;;;13.70;99.90;;;;;;5083288;28;19990;-68
2022/04/21 15:07:54;;;;;;;;;;;13.70;99.90;;;;;;5082702;28;19927;-68
2022/04/21 15:10:20;;;;;;;;;;;13.70;99.90;;;;;;5083395;28;19927;-67
2022/04/21 15:12:48;;;;;;;;;;;13.70;99.90;;;;;;5082922;28;19921;-67
2022/04/21 15:15:15;;;;;;;;;;;13.60;99.90;;;;;;5083152;28;19920;-67
2022/04/21 15:17:42;;;;;;;;;;;13.60;99.90;;;;;;5082971;28;19928;-67
2022/04/21 15:20:08;;;;;;;;;;;13.50;99.90;;;;;;5083099;28;19920;-68
2022/04/21 15:22:35;;;;;;;;;;;13.40;99.90;;;;;;5082985;28;20345;-67
2022/04/21 15:25:02;;;;;;;;;;;13.30;99.90;;;;;;5097231;28;20111;-68
2022/04/21 15:27:28;;;;;;;;;;;13.30;99.90;;;;;;5102942;28;19919;-68
2022/04/21 15:29:56;;;;;;;;;;;13.30;99.90;;;;;;5102729;28;19919;-67
2022/04/21 15:32:23;;;;;;;;;;;13.30;99.90;;;;;;5103213;28;19928;-68
2022/04/21 15:34:49;;;;;;;;;;;13.30;99.90;;;;;;5103033;28;19926;-67
2022/04/21 15:37:16;;;;;;;;;;;13.30;99.90;;;;;;5102666;28;19920;-67
2022/04/21 15:39:45;;;;;;;;;;;13.20;99.90;;;;;;5102884;28;19956;-68
2022/04/21 15:42:11;;;;;;;;;;;13.10;99.90;;;;;;5103244;28;19920;-68